Time;durP1;ratioP1;P1;durP2;ratioP2;P2;SDS_P1;SDS_P2;PMS_P1;PMS_P2;Temp;Humidity;BMP_temperature;BMP_pressure;BME280_temperature;BME280_humidity;BME280_pressure;Samples;Min_cycle;Max_cycle;Signal;HPM_P1;HPM_P2
2021/11/13 00:00:25;;;;;;;28.42;20.00;;;8.50;99.90;;;;;;5025570;28;20045;-65
2021/11/13 00:02:51;;;;;;;26.50;19.98;;;8.50;99.90;;;;;;5020077;28;20118;-65
2021/11/13 00:05:18;;;;;;;26.77;19.75;;;8.50;99.90;;;;;;5011380;28;20180;-65
2021/11/13 00:07:44;;;;;;;27.67;20.55;;;8.50;99.90;;;;;;5022116;28;20040;-65
2021/11/13 00:10:13;;;;;;;28.30;20.30;;;8.50;99.90;;;;;;5007492;28;20033;-65
2021/11/13 00:12:39;;;;;;;25.92;20.33;;;8.50;99.90;;;;;;5004059;28;20514;-65
2021/11/13 00:15:07;;;;;;;30.58;21.15;;;8.50;99.90;;;;;;5007353;28;20139;-65
2021/11/13 00:17:33;;;;;;;27.58;21.63;;;8.50;99.90;;;;;;5023430;28;20034;-65
2021/11/13 00:19:59;;;;;;;25.40;20.85;;;8.40;99.90;;;;;;5019486;28;20053;-65
2021/11/13 00:22:25;;;;;;;27.48;19.25;;;8.40;99.90;;;;;;5013296;28;20405;-65
2021/11/13 00:24:50;;;;;;;28.60;20.98;;;8.50;99.90;;;;;;5019370;28;20034;-65
2021/11/13 00:27:17;;;;;;;29.40;20.95;;;8.50;99.90;;;;;;5006960;28;20048;-65
2021/11/13 00:29:42;;;;;;;32.45;21.73;;;8.50;99.90;;;;;;5022994;28;20493;-65
2021/11/13 00:32:08;;;;;;;30.10;23.13;;;8.40;99.90;;;;;;5008997;28;20041;-65
2021/11/13 00:34:34;;;;;;;31.15;21.85;;;8.50;99.90;;;;;;5019093;28;20583;-65
2021/11/13 00:37:00;;;;;;;29.63;21.15;;;8.40;99.90;;;;;;5024232;28;20040;-65
2021/11/13 00:39:26;;;;;;;28.65;21.25;;;8.40;99.90;;;;;;5022935;28;20132;-65
2021/11/13 00:41:52;;;;;;;28.30;20.10;;;8.40;99.90;;;;;;5025910;28;20051;-65
2021/11/13 00:44:18;;;;;;;26.83;20.60;;;8.40;99.90;;;;;;5020189;28;20042;-65
2021/11/13 00:46:43;;;;;;;29.98;22.42;;;8.40;99.90;;;;;;5028077;28;20047;-65
2021/11/13 00:49:10;;;;;;;36.47;22.55;;;8.40;99.90;;;;;;5021781;28;20045;-65
2021/11/13 00:51:36;;;;;;;31.77;22.02;;;8.40;99.90;;;;;;5024281;28;20025;-65
2021/11/13 00:54:03;;;;;;;34.72;23.15;;;8.40;99.90;;;;;;5029362;28;20038;-65
2021/11/13 00:56:29;;;;;;;33.97;23.83;;;8.40;99.90;;;;;;5003841;28;20479;-65
2021/11/13 00:58:55;;;;;;;39.65;24.58;;;8.40;99.90;;;;;;5023902;28;20043;-65
2021/11/13 01:01:21;;;;;;;40.17;25.92;;;8.40;99.90;;;;;;5018482;28;20120;-65
2021/11/13 01:03:47;;;;;;;35.33;25.02;;;8.40;99.90;;;;;;5009199;28;20107;-65
2021/11/13 01:06:12;;;;;;;37.92;25.20;;;8.40;99.90;;;;;;5003063;28;20057;-65
2021/11/13 01:08:38;;;;;;;36.88;25.08;;;8.30;99.90;;;;;;5024580;28;20049;-65
2021/11/13 01:11:04;;;;;;;38.33;25.42;;;8.30;99.90;;;;;;5021950;28;20045;-65
2021/11/13 01:13:30;;;;;;;35.10;25.77;;;8.30;99.90;;;;;;5025469;28;20383;-65
2021/11/13 01:15:56;;;;;;;39.80;25.67;;;8.40;99.90;;;;;;5016676;28;20133;-65
2021/11/13 01:18:22;;;;;;;37.70;25.65;;;8.30;99.90;;;;;;5029487;28;20029;-65
2021/11/13 01:20:49;;;;;;;37.63;25.83;;;8.30;99.90;;;;;;5020711;28;20034;-65
2021/11/13 01:23:16;;;;;;;35.38;24.80;;;8.30;99.90;;;;;;5005934;28;20065;-65
2021/11/13 01:25:42;;;;;;;37.25;25.30;;;8.40;99.90;;;;;;5020411;28;20088;-65
2021/11/13 01:28:08;;;;;;;36.65;25.27;;;8.40;99.90;;;;;;5026873;28;20512;-65
2021/11/13 01:30:34;;;;;;;40.80;26.30;;;8.40;99.90;;;;;;5005155;28;20041;-65
2021/11/13 01:33:00;;;;;;;45.70;27.13;;;8.40;99.90;;;;;;5001482;28;20057;-66
2021/11/13 01:35:26;;;;;;;44.90;28.15;;;8.40;99.90;;;;;;5008481;28;20052;-66
2021/11/13 01:37:52;;;;;;;40.22;26.38;;;8.40;99.90;;;;;;5019150;28;20056;-66
2021/11/13 01:40:21;;;;;;;42.63;27.42;;;8.40;99.90;;;;;;5006704;28;21420;-66
2021/11/13 01:42:48;;;;;;;42.72;26.90;;;8.40;99.90;;;;;;5021960;28;20366;-66
2021/11/13 01:45:16;;;;;;;46.47;28.83;;;8.40;99.90;;;;;;5008515;28;20061;-65
2021/11/13 01:47:42;;;;;;;41.60;26.15;;;8.40;99.90;;;;;;5018192;28;20080;-66
2021/11/13 01:50:33;;;;;;;41.65;27.95;;;8.40;99.90;;;;;;5024686;28;20033;-66
2021/11/13 01:52:58;;;;;;;37.10;25.77;;;8.40;99.90;;;;;;5022229;28;20049;-65
2021/11/13 01:55:28;;;;;;;38.65;25.05;;;8.40;99.90;;;;;;5024202;28;20045;-65
2021/11/13 01:57:56;;;;;;;37.40;24.38;;;8.50;99.90;;;;;;5017904;28;20399;-65
2021/11/13 02:00:28;;;;;;;44.33;25.35;;;8.50;99.90;;;;;;5026031;28;20088;-65
2021/11/13 02:02:54;;;;;;;40.70;25.50;;;8.50;99.90;;;;;;5019158;28;20144;-66
2021/11/13 02:05:20;;;;;;;37.05;26.00;;;8.50;99.90;;;;;;5022987;28;20482;-66
2021/11/13 02:07:46;;;;;;;39.10;24.75;;;8.60;99.90;;;;;;5018159;28;20037;-66
2021/11/13 02:10:14;;;;;;;43.58;25.25;;;8.50;99.90;;;;;;5004516;28;20048;-66
2021/11/13 02:12:40;;;;;;;33.50;22.98;;;8.50;99.90;;;;;;4998789;28;20116;-66
2021/11/13 02:15:08;;;;;;;35.85;23.38;;;8.50;99.90;;;;;;5003809;28;20486;-66
2021/11/13 02:17:34;;;;;;;40.63;24.73;;;8.60;99.90;;;;;;5025016;28;20048;-66
2021/11/13 02:20:31;;;;;;;43.13;26.45;;;8.50;99.90;;;;;;5001950;28;20124;-66
2021/11/13 02:23:01;;;;;;;45.40;24.58;;;8.60;99.90;;;;;;5017225;28;20206;-66
2021/11/13 02:25:28;;;;;;;44.67;25.38;;;8.60;99.90;;;;;;5006466;28;20037;-66
2021/11/13 02:27:55;;;;;;;29.40;20.65;;;8.60;99.90;;;;;;5025003;28;20515;-66
2021/11/13 02:30:22;;;;;;;33.67;21.35;;;8.60;99.90;;;;;;5020218;28;20109;-66
2021/11/13 02:32:49;;;;;;;31.90;21.30;;;8.60;99.90;;;;;;5021141;28;20033;-66
2021/11/13 02:35:16;;;;;;;41.08;24.42;;;8.60;99.90;;;;;;5023199;28;20057;-66
2021/11/13 02:37:44;;;;;;;38.15;23.02;;;8.70;99.90;;;;;;5024765;28;20120;-66
2021/11/13 02:40:11;;;;;;;42.03;25.08;;;8.70;99.90;;;;;;5001241;28;20517;-66
2021/11/13 02:42:38;;;;;;;29.67;21.52;;;8.70;99.90;;;;;;5028851;28;20083;-66
2021/11/13 02:45:06;;;;;;;34.63;22.65;;;8.70;99.90;;;;;;5023250;28;20041;-66
2021/11/13 02:47:34;;;;;;;39.38;25.27;;;8.80;99.90;;;;;;5028255;28;20041;-65
2021/11/13 02:50:00;;;;;;;30.77;21.73;;;8.70;99.90;;;;;;5017188;28;20224;-66
2021/11/13 02:52:25;;;;;;;36.50;22.88;;;8.80;99.90;;;;;;5010676;28;20424;-66
2021/11/13 02:54:52;;;;;;;42.25;25.05;;;8.80;99.90;;;;;;5001292;28;20046;-66
2021/11/13 02:57:18;;;;;;;37.65;24.13;;;8.80;99.90;;;;;;5026984;28;20143;-65
2021/11/13 02:59:45;;;;;;;38.40;23.55;;;8.80;99.90;;;;;;5021577;28;20049;-65
2021/11/13 03:02:11;;;;;;;38.67;24.05;;;8.80;99.90;;;;;;5032990;28;20211;-66
2021/11/13 03:04:37;;;;;;;31.70;22.73;;;8.80;99.90;;;;;;5022039;28;20128;-65
2021/11/13 03:07:04;;;;;;;34.03;23.20;;;8.80;99.90;;;;;;5028074;28;20145;-65
2021/11/13 03:09:30;;;;;;;35.50;23.35;;;8.80;99.90;;;;;;5020723;28;20148;-65
2021/11/13 03:11:56;;;;;;;34.65;24.65;;;8.90;99.90;;;;;;5001190;28;20121;-66
2021/11/13 03:14:21;;;;;;;46.22;28.08;;;8.90;99.90;;;;;;5009125;28;20046;-65
2021/11/13 03:16:47;;;;;;;58.72;31.25;;;8.90;99.90;;;;;;5022679;28;20045;-65
2021/11/13 03:19:13;;;;;;;45.92;27.20;;;8.90;99.90;;;;;;5024087;28;20091;-65
2021/11/13 03:21:42;;;;;;;40.63;25.13;;;8.90;99.90;;;;;;5016999;28;20386;-65
2021/11/13 03:24:08;;;;;;;45.50;26.67;;;8.90;99.90;;;;;;5024934;28;20044;-65
2021/11/13 03:26:34;;;;;;;44.70;27.27;;;8.90;99.90;;;;;;5000670;28;20037;-65
2021/11/13 03:29:11;;;;;;;41.83;26.20;;;8.90;99.90;;;;;;5017417;28;20364;-65
2021/11/13 03:31:37;;;;;;;40.03;26.27;;;9.00;99.90;;;;;;4995761;28;20435;-65
2021/11/13 03:34:03;;;;;;;38.30;25.95;;;8.90;99.90;;;;;;5017593;28;20160;-65
2021/11/13 03:36:29;;;;;;;54.45;29.45;;;9.00;99.90;;;;;;5017457;28;20117;-65
2021/11/13 03:38:55;;;;;;;48.83;29.45;;;9.00;99.90;;;;;;5026499;28;20053;-66
2021/11/13 03:41:22;;;;;;;43.28;27.20;;;9.00;99.90;;;;;;5024210;28;20095;-66
2021/11/13 03:43:48;;;;;;;49.90;28.88;;;9.00;99.90;;;;;;5027195;28;20110;-65
2021/11/13 03:46:15;;;;;;;43.30;28.30;;;9.10;99.90;;;;;;5022723;28;20040;-66
2021/11/13 03:48:41;;;;;;;44.33;28.08;;;9.10;99.90;;;;;;5027752;28;20034;-66
2021/11/13 03:51:07;;;;;;;45.15;28.48;;;9.10;99.90;;;;;;5025057;28;20061;-66
2021/11/13 03:53:33;;;;;;;49.83;29.85;;;9.00;99.90;;;;;;5024859;28;20106;-66
2021/11/13 03:55:59;;;;;;;45.28;27.95;;;9.00;99.90;;;;;;5023170;28;20052;-66
2021/11/13 03:58:25;;;;;;;49.33;29.92;;;9.10;99.90;;;;;;5021884;28;20041;-67
2021/11/13 04:00:51;;;;;;;54.53;30.15;;;9.10;99.90;;;;;;5028172;28;20038;-67
2021/11/13 04:03:18;;;;;;;46.60;28.67;;;9.10;99.90;;;;;;5022997;28;20044;-67
2021/11/13 04:05:44;;;;;;;73.85;34.30;;;9.10;99.90;;;;;;5025824;28;20169;-67
2021/11/13 04:08:10;;;;;;;45.45;29.13;;;9.10;99.90;;;;;;5021945;28;20112;-66
2021/11/13 04:10:35;;;;;;;45.83;28.80;;;9.10;99.90;;;;;;5023935;28;20122;-66
2021/11/13 04:13:01;;;;;;;46.63;28.30;;;9.10;99.90;;;;;;5016232;28;20057;-66
2021/11/13 04:15:27;;;;;;;52.22;30.67;;;9.10;99.90;;;;;;5029255;28;20029;-66
2021/11/13 04:17:53;;;;;;;50.80;31.17;;;9.20;99.90;;;;;;5022701;28;20502;-66
2021/11/13 04:20:19;;;;;;;46.08;28.63;;;9.20;99.90;;;;;;5025877;28;20034;-66
2021/11/13 04:22:49;;;;;;;49.10;29.17;;;9.10;99.90;;;;;;5006309;28;20048;-66
2021/11/13 04:25:16;;;;;;;65.15;32.67;;;9.20;99.90;;;;;;5009522;28;20030;-66
2021/11/13 04:27:42;;;;;;;54.92;31.13;;;9.20;99.90;;;;;;5003828;28;20033;-66
2021/11/13 04:30:12;;;;;;;54.28;30.73;;;9.20;99.90;;;;;;5025126;28;20548;-65
2021/11/13 04:32:38;;;;;;;41.97;27.30;;;9.20;99.90;;;;;;5008999;28;20082;-65
2021/11/13 04:36:01;;;;;;;42.58;29.42;;;9.20;99.90;;;;;;5025440;28;20501;-65
2021/11/13 04:37:58;;;;;;;63.05;31.70;;;9.20;99.90;;;;;;5000707;28;20095;-65
2021/11/13 04:40:27;;;;;;;46.97;28.45;;;9.20;99.90;;;;;;5025748;28;20595;-65
2021/11/13 04:42:53;;;;;;;52.97;31.75;;;9.20;99.90;;;;;;5024595;28;20107;-65
2021/11/13 04:45:20;;;;;;;54.88;31.85;;;9.30;99.90;;;;;;5004429;28;20040;-65
2021/11/13 04:47:46;;;;;;;49.22;31.08;;;9.20;99.90;;;;;;5029007;28;20045;-65
2021/11/13 04:50:17;;;;;;;48.50;30.15;;;9.20;99.90;;;;;;5020157;28;20041;-65
2021/11/13 04:52:43;;;;;;;67.78;33.85;;;9.30;99.90;;;;;;5009859;28;20038;-65
2021/11/13 04:55:10;;;;;;;55.67;33.03;;;9.30;99.90;;;;;;5022767;28;20136;-65
2021/11/13 04:57:36;;;;;;;46.95;30.40;;;9.30;99.90;;;;;;5024712;28;20442;-65
2021/11/13 05:00:06;;;;;;;69.47;33.53;;;9.30;99.90;;;;;;5017237;28;20045;-65
2021/11/13 05:02:31;;;;;;;50.97;31.23;;;9.30;99.90;;;;;;5024904;28;20114;-65
2021/11/13 05:04:57;;;;;;;56.00;31.45;;;9.30;99.90;;;;;;5021547;28;20041;-65
2021/11/13 05:07:23;;;;;;;54.33;31.23;;;9.30;99.90;;;;;;5027125;28;20048;-66
2021/11/13 05:09:50;;;;;;;42.47;28.35;;;9.30;99.90;;;;;;5021459;28;20041;-66
2021/11/13 05:12:16;;;;;;;45.03;29.10;;;9.30;99.90;;;;;;5026800;28;20079;-65
2021/11/13 05:14:42;;;;;;;42.33;27.52;;;9.30;99.90;;;;;;5022667;28;20045;-65
2021/11/13 05:17:07;;;;;;;41.30;28.20;;;9.30;99.90;;;;;;5024342;28;20386;-65
2021/11/13 05:19:33;;;;;;;54.13;31.23;;;9.30;99.90;;;;;;5024822;28;20038;-65
2021/11/13 05:21:59;;;;;;;57.85;30.23;;;9.30;99.90;;;;;;5021272;28;20041;-65
2021/11/13 05:24:25;;;;;;;52.63;31.35;;;9.30;99.90;;;;;;5003022;28;20049;-65
2021/11/13 05:26:51;;;;;;;41.13;27.65;;;9.30;99.90;;;;;;5012452;28;20050;-65
2021/11/13 05:29:17;;;;;;;44.00;28.63;;;9.30;99.90;;;;;;5025484;28;20061;-65
2021/11/13 05:31:42;;;;;;;48.53;30.35;;;9.30;99.90;;;;;;5017590;28;20045;-65
2021/11/13 05:34:08;;;;;;;39.97;27.58;;;9.40;99.90;;;;;;5020069;28;20030;-65
2021/11/13 05:36:34;;;;;;;44.63;28.48;;;9.30;99.90;;;;;;5015881;28;20041;-65
2021/11/13 05:38:59;;;;;;;38.22;28.27;;;9.40;99.90;;;;;;5023092;28;20092;-65
2021/11/13 05:41:25;;;;;;;63.92;32.50;;;9.40;99.90;;;;;;5014134;28;20745;-65
2021/11/13 05:43:51;;;;;;;45.38;28.17;;;9.40;99.90;;;;;;5004176;28;20081;-65
2021/11/13 05:46:16;;;;;;;49.78;30.50;;;9.40;99.90;;;;;;5015899;28;20034;-65
2021/11/13 05:48:43;;;;;;;45.50;29.23;;;9.40;99.90;;;;;;5024708;28;20029;-65
2021/11/13 05:51:08;;;;;;;46.33;28.50;;;9.40;99.90;;;;;;5010888;28;20045;-65
2021/11/13 05:53:34;;;;;;;43.53;28.13;;;9.40;99.90;;;;;;5021349;28;20492;-65
2021/11/13 05:56:00;;;;;;;43.50;27.83;;;9.40;99.90;;;;;;5017761;28;20037;-66
2021/11/13 05:58:26;;;;;;;38.70;27.23;;;9.40;99.90;;;;;;5025611;28;20072;-66
2021/11/13 06:00:51;;;;;;;45.55;28.70;;;9.40;99.90;;;;;;5022101;28;20056;-66
2021/11/13 06:03:17;;;;;;;43.03;28.45;;;9.40;99.90;;;;;;5015276;28;20080;-66
2021/11/13 06:05:43;;;;;;;47.80;28.58;;;9.40;99.90;;;;;;5019203;28;20041;-65
2021/11/13 06:08:10;;;;;;;48.50;28.92;;;9.40;99.90;;;;;;5013140;28;20033;-65
2021/11/13 06:10:36;;;;;;;53.83;29.10;;;9.40;99.90;;;;;;5021440;28;20076;-65
2021/11/13 06:13:02;;;;;;;64.75;31.67;;;9.50;99.90;;;;;;5020377;28;20064;-65
2021/11/13 06:15:28;;;;;;;47.72;28.52;;;9.40;99.90;;;;;;5001790;28;20084;-66
2021/11/13 06:17:53;;;;;;;44.47;27.60;;;9.40;99.90;;;;;;5018026;28;20064;-66
2021/11/13 06:20:19;;;;;;;44.70;27.70;;;9.50;99.90;;;;;;5006915;28;20066;-66
2021/11/13 06:22:45;;;;;;;35.30;25.88;;;9.40;99.90;;;;;;5002892;28;20556;-66
2021/11/13 06:25:12;;;;;;;45.13;28.00;;;9.40;99.90;;;;;;5009841;28;20457;-66
2021/11/13 06:27:39;;;;;;;43.10;27.00;;;9.40;99.90;;;;;;5021590;28;20124;-66
2021/11/13 06:30:07;;;;;;;42.40;27.50;;;9.40;99.90;;;;;;5027940;28;20131;-66
2021/11/13 06:32:33;;;;;;;35.60;26.85;;;9.40;99.90;;;;;;5022343;28;20077;-66
2021/11/13 06:34:59;;;;;;;36.70;24.88;;;9.40;99.90;;;;;;5032589;28;20392;-66
2021/11/13 06:37:26;;;;;;;36.75;25.20;;;9.40;99.90;;;;;;5006645;28;20053;-66
2021/11/13 06:39:52;;;;;;;47.45;29.08;;;9.40;99.90;;;;;;5019917;28;20509;-66
2021/11/13 06:42:18;;;;;;;41.90;26.60;;;9.50;99.90;;;;;;5030982;28;20121;-66
2021/11/13 06:44:44;;;;;;;42.45;26.85;;;9.40;99.90;;;;;;5016604;28;20042;-66
2021/11/13 06:47:09;;;;;;;38.35;25.42;;;9.40;99.90;;;;;;5026414;28;20041;-66
2021/11/13 06:49:35;;;;;;;32.85;25.63;;;9.50;99.90;;;;;;5006892;28;20044;-66
2021/11/13 06:52:01;;;;;;;36.28;25.48;;;9.50;99.90;;;;;;5031815;28;20528;-66
2021/11/13 06:54:27;;;;;;;38.40;25.50;;;9.50;99.90;;;;;;5000974;28;20401;-66
2021/11/13 06:56:52;;;;;;;40.67;26.15;;;9.50;99.90;;;;;;5028383;28;20053;-66
2021/11/13 06:59:20;;;;;;;36.40;24.42;;;9.50;99.90;;;;;;5022211;28;20047;-66
2021/11/13 07:01:46;;;;;;;39.30;26.85;;;9.40;99.90;;;;;;5026682;28;20045;-66
2021/11/13 07:04:11;;;;;;;42.90;27.15;;;9.60;99.90;;;;;;5006452;28;20120;-66
2021/11/13 07:06:37;;;;;;;58.95;29.83;;;9.50;99.90;;;;;;5030599;28;20045;-66
2021/11/13 07:09:03;;;;;;;38.05;26.92;;;9.50;99.90;;;;;;5022091;28;20509;-66
2021/11/13 07:11:29;;;;;;;50.80;30.23;;;9.50;99.90;;;;;;5027472;28;20033;-66
2021/11/13 07:13:54;;;;;;;41.30;27.08;;;9.60;99.90;;;;;;5006279;28;20461;-66
2021/11/13 07:16:20;;;;;;;45.78;29.17;;;9.60;99.90;;;;;;5022197;28;20033;-66
2021/11/13 07:18:46;;;;;;;56.95;32.10;;;9.60;99.90;;;;;;5027809;28;20045;-66
2021/11/13 07:21:11;;;;;;;55.83;31.77;;;9.60;99.90;;;;;;5022017;28;20623;-66
2021/11/13 07:23:37;;;;;;;60.75;33.00;;;9.60;99.90;;;;;;5023050;28;20100;-66
2021/11/13 07:26:06;;;;;;;49.50;30.20;;;9.60;99.90;;;;;;5023008;28;20038;-66
2021/11/13 07:28:40;;;;;;;82.18;33.95;;;9.70;99.90;;;;;;5012252;28;20120;-66
2021/11/13 07:31:08;;;;;;;47.88;30.40;;;9.70;99.90;;;;;;5014318;28;20065;-66
2021/11/13 07:33:34;;;;;;;47.25;29.42;;;9.70;99.90;;;;;;5023895;28;20388;-66
2021/11/13 07:36:01;;;;;;;65.75;34.05;;;9.70;99.90;;;;;;5019807;28;20556;-66
2021/11/13 07:38:27;;;;;;;52.72;31.27;;;9.70;99.90;;;;;;5022181;28;20044;-66
2021/11/13 07:40:53;;;;;;;45.58;30.38;;;9.70;99.90;;;;;;5012451;28;20061;-66
2021/11/13 07:43:20;;;;;;;53.45;32.35;;;9.80;99.90;;;;;;5021680;28;20439;-66
2021/11/13 07:45:46;;;;;;;56.78;31.48;;;9.80;99.90;;;;;;5016553;28;20060;-66
2021/11/13 07:48:12;;;;;;;57.38;32.63;;;9.80;99.90;;;;;;5027213;28;20080;-66
2021/11/13 07:50:38;;;;;;;72.78;35.83;;;9.80;99.90;;;;;;5018102;28;20037;-66
2021/11/13 07:53:05;;;;;;;53.42;31.15;;;9.80;99.90;;;;;;5004751;28;20072;-66
2021/11/13 07:55:31;;;;;;;67.53;34.35;;;9.90;99.90;;;;;;5017102;28;20038;-66
2021/11/13 07:57:57;;;;;;;58.25;32.92;;;9.90;99.90;;;;;;5021911;28;20096;-66
2021/11/13 08:00:23;;;;;;;52.53;29.83;;;9.90;99.90;;;;;;5025356;28;20112;-66
2021/11/13 08:02:49;;;;;;;44.17;29.02;;;10.00;99.90;;;;;;5017402;28;20543;-66
2021/11/13 08:05:15;;;;;;;48.22;31.23;;;10.00;99.90;;;;;;5022461;28;20045;-66
2021/11/13 08:07:42;;;;;;;43.50;29.13;;;10.00;99.90;;;;;;5015321;28;20490;-66
2021/11/13 08:10:09;;;;;;;74.07;33.78;;;10.00;99.90;;;;;;5025161;28;20454;-66
2021/11/13 08:12:35;;;;;;;56.50;30.52;;;10.10;99.90;;;;;;5018503;28;20125;-66
2021/11/13 08:15:01;;;;;;;72.28;34.58;;;10.10;99.90;;;;;;5004956;28;20068;-66
2021/11/13 08:17:27;;;;;;;53.08;31.38;;;10.00;99.90;;;;;;5023766;28;20029;-66
2021/11/13 08:19:52;;;;;;;51.83;31.80;;;10.10;99.90;;;;;;5011211;28;20112;-66
2021/11/13 08:22:18;;;;;;;44.47;29.63;;;10.10;99.90;;;;;;5023233;28;20061;-66
2021/11/13 08:24:44;;;;;;;56.85;30.23;;;10.20;99.90;;;;;;5029420;28;20531;-66
2021/11/13 08:27:10;;;;;;;47.97;30.70;;;10.10;99.90;;;;;;5017444;28;20056;-66
2021/11/13 08:29:36;;;;;;;48.35;29.42;;;10.10;99.90;;;;;;5012595;28;20092;-66
2021/11/13 08:32:02;;;;;;;36.15;26.95;;;10.20;99.90;;;;;;5023344;28;20064;-66
2021/11/13 08:34:28;;;;;;;80.70;32.55;;;10.20;99.90;;;;;;5030566;28;20045;-66
2021/11/13 08:36:54;;;;;;;43.50;26.55;;;10.30;99.90;;;;;;5024271;28;20178;-66
2021/11/13 08:39:20;;;;;;;38.38;25.85;;;10.20;99.90;;;;;;5024557;28;20124;-66
2021/11/13 08:41:45;;;;;;;37.08;25.50;;;10.20;99.90;;;;;;5026500;28;20366;-66
2021/11/13 08:44:11;;;;;;;35.47;25.23;;;10.20;99.90;;;;;;5002758;28;20099;-66
2021/11/13 08:46:37;;;;;;;37.97;25.92;;;10.20;99.90;;;;;;5026721;28;20418;-66
2021/11/13 08:49:04;;;;;;;36.42;25.05;;;10.20;99.90;;;;;;5025013;28;20053;-66
2021/11/13 08:51:30;;;;;;;39.70;26.02;;;10.30;99.90;;;;;;5026397;28;20042;-66
2021/11/13 08:53:56;;;;;;;39.95;26.65;;;10.30;99.90;;;;;;5019614;28;20045;-66
2021/11/13 08:56:27;;;;;;;38.80;26.30;;;10.30;99.90;;;;;;5013271;28;20188;-66
2021/11/13 08:58:54;;;;;;;36.95;25.50;;;10.40;99.90;;;;;;5017472;28;20079;-66
2021/11/13 09:01:23;;;;;;;35.25;25.60;;;10.40;99.90;;;;;;5011443;28;20046;-66
2021/11/13 09:03:51;;;;;;;31.55;24.73;;;10.40;99.90;;;;;;5019048;28;20042;-66
2021/11/13 09:06:22;;;;;;;39.95;26.25;;;10.40;99.90;;;;;;5012671;28;20092;-66
2021/11/13 09:08:50;;;;;;;40.10;24.60;;;10.50;99.90;;;;;;5003924;28;20156;-66
2021/11/13 09:11:20;;;;;;;32.10;23.75;;;10.50;99.90;;;;;;5026497;28;20065;-66
2021/11/13 09:13:47;;;;;;;33.65;24.90;;;10.50;99.90;;;;;;5018391;28;20046;-66
2021/11/13 09:16:13;;;;;;;29.50;23.23;;;10.50;99.90;;;;;;5029169;28;20398;-66
2021/11/13 09:18:39;;;;;;;35.85;24.30;;;10.60;99.90;;;;;;5024579;28;20038;-66
2021/11/13 09:21:06;;;;;;;28.88;22.05;;;10.60;99.90;;;;;;5020948;28;20045;-66
2021/11/13 09:23:33;;;;;;;29.38;23.02;;;10.60;99.90;;;;;;5009861;28;20538;-66
2021/11/13 09:25:59;;;;;;;27.13;22.08;;;10.70;99.90;;;;;;5002418;28;20041;-66
2021/11/13 09:28:25;;;;;;;24.90;20.42;;;10.70;99.90;;;;;;5026182;28;20041;-66
2021/11/13 09:30:51;;;;;;;25.98;20.17;;;10.70;99.90;;;;;;5022333;28;20065;-66
2021/11/13 09:33:17;;;;;;;24.27;20.05;;;10.80;99.90;;;;;;5024558;28;20496;-66
2021/11/13 09:35:44;;;;;;;24.08;18.77;;;10.80;99.90;;;;;;5022316;28;20152;-66
2021/11/13 09:38:11;;;;;;;23.15;18.88;;;10.80;99.90;;;;;;5008426;28;20057;-66
2021/11/13 09:40:37;;;;;;;23.58;19.13;;;10.80;99.90;;;;;;5016783;28;20049;-66
2021/11/13 09:43:05;;;;;;;25.40;19.58;;;10.90;99.90;;;;;;5026634;28;20502;-66
2021/11/13 09:45:32;;;;;;;22.08;17.45;;;10.90;99.90;;;;;;5018218;28;20383;-66
2021/11/13 09:47:59;;;;;;;24.02;18.75;;;10.90;99.90;;;;;;5005663;28;20467;-66
2021/11/13 09:50:29;;;;;;;20.30;18.10;;;10.90;99.90;;;;;;5018703;28;20448;-66
2021/11/13 09:52:56;;;;;;;20.65;17.90;;;10.90;99.90;;;;;;5027638;28;20033;-66
2021/11/13 09:55:24;;;;;;;24.23;17.60;;;10.90;99.90;;;;;;4999579;28;20088;-66
2021/11/13 09:57:51;;;;;;;21.33;17.30;;;10.90;99.90;;;;;;5026023;28;20044;-66
2021/11/13 10:00:21;;;;;;;26.60;18.55;;;10.80;99.90;;;;;;5022989;28;20046;-66
2021/11/13 10:02:46;;;;;;;25.90;17.98;;;10.80;99.90;;;;;;5016538;28;20045;-66
2021/11/13 10:05:12;;;;;;;22.73;17.48;;;10.80;99.90;;;;;;5029329;28;20044;-66
2021/11/13 10:07:39;;;;;;;20.45;17.15;;;10.80;99.90;;;;;;5000011;28;20056;-66
2021/11/13 10:10:06;;;;;;;27.38;18.67;;;10.80;99.90;;;;;;5004981;28;20569;-66
2021/11/13 10:12:38;;;;;;;21.90;17.33;;;10.80;99.90;;;;;;5016156;28;20508;-66
2021/11/13 10:15:39;;;;;;;26.67;18.48;;;10.80;99.90;;;;;;5006959;28;20461;-66
2021/11/13 10:18:06;;;;;;;26.17;17.88;;;10.80;99.90;;;;;;4921927;29;20062;-66
2021/11/13 10:20:33;;;;;;;24.23;17.80;;;10.80;99.90;;;;;;4987860;28;20054;-66
2021/11/13 10:22:59;;;;;;;21.30;17.42;;;10.80;99.90;;;;;;5021319;28;20041;-66
2021/11/13 10:25:25;;;;;;;23.95;18.02;;;10.80;99.90;;;;;;5017209;28;20501;-66
2021/11/13 10:28:15;;;;;;;26.52;19.80;;;10.80;99.90;;;;;;5015811;28;20037;-66
2021/11/13 10:30:43;;;;;;;27.30;21.48;;;10.90;99.90;;;;;;5022174;28;20040;-66
2021/11/13 10:33:09;;;;;;;37.20;28.85;;;10.80;99.90;;;;;;5000896;28;20120;-66
2021/11/13 10:35:44;;;;;;;40.08;31.48;;;10.80;99.90;;;;;;5026882;28;20029;-66
2021/11/13 10:38:19;;;;;;;30.65;24.75;;;10.90;99.90;;;;;;5019441;28;20573;-66
2021/11/13 10:41:07;;;;;;;30.73;22.25;;;10.90;99.90;;;;;;5023616;28;20050;-66
2021/11/13 10:43:35;;;;;;;28.95;22.05;;;10.90;99.90;;;;;;5017287;28;20077;-66
2021/11/13 10:46:05;;;;;;;27.10;21.30;;;10.90;99.90;;;;;;5021832;28;20053;-66
2021/11/13 10:48:34;;;;;;;28.98;20.60;;;10.90;99.90;;;;;;4998710;28;20041;-66
2021/11/13 10:51:05;;;;;;;27.20;21.08;;;11.00;99.90;;;;;;5026066;28;20033;-66
2021/11/13 10:53:32;;;;;;;29.50;20.98;;;11.00;99.90;;;;;;5021596;28;20052;-66
2021/11/13 10:56:10;;;;;;;31.80;21.48;;;11.00;99.90;;;;;;5024001;28;20041;-66
2021/11/13 10:58:39;;;;;;;29.90;21.33;;;11.00;99.90;;;;;;5016869;28;20060;-66
2021/11/13 11:01:22;;;;;;;31.75;22.67;;;10.90;99.90;;;;;;5023907;28;20056;-66
2021/11/13 11:03:48;;;;;;;28.38;21.98;;;11.00;99.90;;;;;;5018296;28;20069;-66
2021/11/13 11:06:30;;;;;;;29.80;22.17;;;11.00;99.90;;;;;;5007030;28;20049;-66
2021/11/13 11:08:58;;;;;;;31.10;22.67;;;11.00;99.90;;;;;;5005910;28;20083;-66
2021/11/13 11:11:36;;;;;;;33.80;22.52;;;11.00;99.90;;;;;;5022271;28;20684;-66
2021/11/13 11:14:07;;;;;;;31.33;22.88;;;11.00;99.90;;;;;;5003750;28;20382;-66
2021/11/13 11:16:39;;;;;;;28.73;21.63;;;11.00;99.90;;;;;;5029822;28;20114;-66
2021/11/13 11:19:04;;;;;;;28.52;21.67;;;11.00;99.90;;;;;;5023151;28;20698;-66
2021/11/13 11:21:41;;;;;;;29.67;22.00;;;11.00;99.90;;;;;;5030118;28;20057;-66
2021/11/13 11:24:08;;;;;;;30.23;22.08;;;11.00;99.90;;;;;;5018900;28;20140;-66
2021/11/13 11:26:35;;;;;;;36.85;24.85;;;11.00;99.90;;;;;;5014656;28;20033;-66
2021/11/13 11:29:01;;;;;;;32.72;22.83;;;11.00;99.90;;;;;;5024006;28;20113;-66
2021/11/13 11:31:39;;;;;;;34.97;23.70;;;11.00;99.90;;;;;;5029544;28;20037;-66
2021/11/13 11:34:05;;;;;;;32.67;24.13;;;11.00;99.90;;;;;;5018969;28;20041;-66
2021/11/13 11:36:31;;;;;;;32.20;23.50;;;11.10;99.90;;;;;;5029324;28;20041;-66
2021/11/13 11:38:58;;;;;;;30.60;22.67;;;11.10;99.90;;;;;;5027355;28;20410;-66
2021/11/13 11:41:24;;;;;;;31.27;24.63;;;11.10;99.90;;;;;;5021795;28;20043;-66
2021/11/13 11:43:52;;;;;;;37.45;25.50;;;11.10;99.90;;;;;;5030342;28;20044;-66
2021/11/13 11:46:18;;;;;;;37.63;24.23;;;11.10;99.90;;;;;;5001062;28;20046;-66
2021/11/13 11:48:45;;;;;;;31.42;23.73;;;11.20;99.90;;;;;;5026254;28;20056;-66
2021/11/13 11:51:12;;;;;;;34.00;22.73;;;11.20;99.90;;;;;;5020691;28;20113;-66
2021/11/13 11:53:38;;;;;;;38.13;24.88;;;11.20;99.90;;;;;;5026520;28;20041;-66
2021/11/13 11:56:04;;;;;;;35.90;24.40;;;11.20;99.90;;;;;;5021943;28;20379;-66
2021/11/13 11:58:30;;;;;;;30.90;23.27;;;11.30;99.90;;;;;;5024534;28;20052;-66
2021/11/13 12:00:59;;;;;;;29.35;22.00;;;11.30;99.90;;;;;;5021624;28;20124;-66
2021/11/13 12:03:35;;;;;;;30.58;22.88;;;11.30;99.90;;;;;;5028095;28;20060;-66
2021/11/13 12:06:03;;;;;;;32.58;22.92;;;11.30;99.90;;;;;;5002303;28;20448;-66
2021/11/13 12:08:29;;;;;;;37.78;22.77;;;11.30;99.90;;;;;;5022459;28;20048;-66
2021/11/13 12:11:22;;;;;;;30.05;21.73;;;11.30;99.90;;;;;;5020201;28;20033;-66
2021/11/13 12:13:48;;;;;;;27.17;20.45;;;11.40;99.90;;;;;;5008174;28;20037;-66
2021/11/13 12:16:22;;;;;;;29.45;20.70;;;11.30;99.90;;;;;;5023788;28;20117;-66
2021/11/13 12:18:48;;;;;;;29.38;20.92;;;11.30;99.90;;;;;;5027002;28;20116;-66
2021/11/13 12:21:17;;;;;;;28.08;19.10;;;11.40;99.90;;;;;;5004115;28;20124;-66
2021/11/13 12:23:48;;;;;;;31.33;21.02;;;11.40;99.90;;;;;;5029279;28;20120;-66
2021/11/13 12:26:23;;;;;;;27.67;18.77;;;11.50;99.90;;;;;;5013202;28;20477;-66
2021/11/13 12:28:52;;;;;;;22.95;19.10;;;11.50;99.90;;;;;;5010436;28;20298;-66
2021/11/13 12:31:20;;;;;;;29.20;19.98;;;11.50;99.90;;;;;;5018305;28;20127;-66
2021/11/13 12:34:13;;;;;;;24.70;19.02;;;11.50;99.90;;;;;;5024837;28;20493;-66